createdAt,value
2018-03-16T00:01:00.301Z,5.83
2018-03-16T00:01:42.638Z,5.7
2018-03-16T00:02:46.460Z,5.71
2018-03-16T00:03:39.976Z,5.82
2018-03-16T00:04:39.966Z,5.82
2018-03-16T00:05:39.964Z,5.86
2018-03-16T00:06:39.971Z,5.86
2018-03-16T00:07:39.985Z,5.78
2018-03-16T00:08:39.991Z,5.73
2018-03-16T00:09:40.003Z,5.75
2018-03-16T00:10:39.980Z,5.89
2018-03-16T00:11:39.986Z,5.79
2018-03-16T00:12:39.991Z,5.99
2018-03-16T00:13:39.985Z,6.08
2018-03-16T00:14:39.995Z,5.88
2018-03-16T00:15:39.999Z,5.75
2018-03-16T00:16:40.016Z,5.71
2018-03-16T00:17:40.018Z,5.67
2018-03-16T00:18:40.025Z,5.87
2018-03-16T00:19:40.039Z,5.93
2018-03-16T00:20:40.027Z,5.86
2018-03-16T00:21:40.032Z,5.78
2018-03-16T00:22:40.082Z,5.81
2018-03-16T00:23:40.045Z,5.85
2018-03-16T00:24:40.076Z,5.74
2018-03-16T00:25:40.429Z,5.8
2018-03-16T00:26:40.048Z,5.76
2018-03-16T00:27:40.035Z,5.79
2018-03-16T00:28:40.206Z,5.9
2018-03-16T00:29:40.063Z,5.96
2018-03-16T00:30:40.048Z,5.79
2018-03-16T00:31:40.056Z,5.78
2018-03-16T00:32:40.062Z,5.74
2018-03-16T00:33:40.100Z,5.84
2018-03-16T00:34:40.064Z,5.93
2018-03-16T00:35:40.080Z,5.76
2018-03-16T00:36:40.088Z,5.7
2018-03-16T00:37:40.090Z,5.71
2018-03-16T00:38:40.111Z,5.88
2018-03-16T00:39:40.085Z,5.79
2018-03-16T00:40:40.090Z,5.84
2018-03-16T00:41:40.135Z,5.81
2018-03-16T00:42:40.112Z,5.94
2018-03-16T00:43:40.141Z,5.88
2018-03-16T00:44:40.109Z,5.78
2018-03-16T00:45:40.111Z,5.74
2018-03-16T00:46:40.141Z,5.7
2018-03-16T00:47:40.118Z,5.75
2018-03-16T00:48:40.146Z,5.91
2018-03-16T00:49:40.143Z,5.8
2018-03-16T00:50:40.130Z,5.79
2018-03-16T00:51:40.128Z,5.79
2018-03-16T00:52:40.138Z,5.86
2018-03-16T00:53:40.257Z,5.84
2018-03-16T00:54:40.144Z,5.82
2018-03-16T00:55:40.141Z,5.77
2018-03-16T00:56:40.144Z,5.8
2018-03-16T00:57:40.181Z,5.83
2018-03-16T00:58:40.301Z,5.9
2018-03-16T00:59:40.154Z,5.78
2018-03-16T01:00:40.140Z,5.82
2018-03-16T01:01:40.136Z,5.72
2018-03-16T01:02:40.151Z,5.76
2018-03-16T01:03:40.190Z,5.77
2018-03-16T01:04:40.161Z,5.93
2018-03-16T01:05:40.187Z,5.78
2018-03-16T01:06:40.188Z,5.79
2018-03-16T01:07:40.174Z,5.76
2018-03-16T01:08:40.187Z,5.81
2018-03-16T01:09:40.173Z,5.84
2018-03-16T01:10:40.187Z,5.69
2018-03-16T01:11:40.201Z,5.8
2018-03-16T01:12:40.198Z,5.78
2018-03-16T01:13:40.189Z,5.83
2018-03-16T01:14:40.226Z,5.77
2018-03-16T01:15:40.207Z,5.78
2018-03-16T01:16:40.270Z,5.85
2018-03-16T01:17:40.217Z,5.81
2018-03-16T01:18:40.232Z,5.88
2018-03-16T01:19:40.240Z,5.84
2018-03-16T01:20:40.238Z,5.82
2018-03-16T01:21:40.269Z,5.9
2018-03-16T01:22:40.247Z,5.91
2018-03-16T01:23:40.260Z,5.85
2018-03-16T01:24:40.306Z,5.89
2018-03-16T01:25:40.266Z,5.88
2018-03-16T01:26:40.258Z,5.91
2018-03-16T01:27:40.270Z,5.91
2018-03-16T01:28:40.266Z,5.87
2018-03-16T01:29:40.299Z,5.79
2018-03-16T01:30:40.287Z,6.01
2018-03-16T01:31:40.292Z,5.91
2018-03-16T01:32:40.293Z,5.83
2018-03-16T01:33:40.289Z,5.81
2018-03-16T01:34:40.317Z,5.83
2018-03-16T01:35:40.312Z,5.95
2018-03-16T01:36:40.291Z,5.87
2018-03-16T01:37:40.290Z,5.92
2018-03-16T01:38:40.300Z,5.93
2018-03-16T01:39:40.317Z,5.85
2018-03-16T01:40:40.317Z,6.1
2018-03-16T01:41:40.314Z,5.93
2018-03-16T01:42:40.318Z,6.19
2018-03-16T01:43:40.329Z,6.08
2018-03-16T01:44:40.337Z,6.11
2018-03-16T01:45:40.362Z,6.12
2018-03-16T01:46:40.325Z,6.15
2018-03-16T01:47:40.343Z,6.12
2018-03-16T01:48:40.330Z,5.97
2018-03-16T01:49:40.352Z,5.93
2018-03-16T01:50:40.372Z,6.11
2018-03-16T01:51:40.342Z,6.2
2018-03-16T01:52:40.374Z,6.04
2018-03-16T01:53:40.337Z,5.97
2018-03-16T01:54:40.344Z,6.07
2018-03-16T01:55:40.344Z,6.19
2018-03-16T01:56:40.366Z,6.25
2018-03-16T01:57:40.354Z,6.14
2018-03-16T01:58:40.406Z,6.17
2018-03-16T01:59:40.362Z,5.98
2018-03-16T02:00:40.385Z,6.01
2018-03-16T02:01:40.362Z,5.97
2018-03-16T02:02:40.367Z,6.05
2018-03-16T02:03:40.357Z,6.15
2018-03-16T02:04:40.372Z,6.19
2018-03-16T02:05:40.362Z,6.25
2018-03-16T02:06:40.376Z,6.26
2018-03-16T02:07:40.379Z,6.17
2018-03-16T02:08:40.382Z,6.05
2018-03-16T02:09:40.399Z,6.11
2018-03-16T02:10:40.395Z,6.06
2018-03-16T02:11:40.460Z,5.92
2018-03-16T02:12:40.397Z,5.98
2018-03-16T02:13:40.407Z,6.07
2018-03-16T02:14:40.416Z,6.03
2018-03-16T02:15:40.438Z,6
2018-03-16T02:16:40.413Z,6.03
2018-03-16T02:17:40.418Z,6.01
2018-03-16T02:18:40.407Z,6
2018-03-16T02:19:40.420Z,6.08
2018-03-16T02:20:40.441Z,5.99
2018-03-16T02:21:40.433Z,5.98
2018-03-16T02:22:40.438Z,5.97
2018-03-16T02:23:40.428Z,5.97
2018-03-16T02:24:40.426Z,5.96
2018-03-16T02:25:40.457Z,6.05
2018-03-16T02:26:40.437Z,6.1
2018-03-16T02:27:40.444Z,5.98
2018-03-16T02:28:40.456Z,6.15
2018-03-16T02:29:40.446Z,5.99
2018-03-16T02:30:40.526Z,5.97
2018-03-16T02:31:40.458Z,5.89
2018-03-16T02:32:40.463Z,5.93
2018-03-16T02:33:40.500Z,6.17
2018-03-16T02:34:40.478Z,6.08
2018-03-16T02:35:40.508Z,6.02
2018-03-16T02:36:40.503Z,5.97
2018-03-16T02:37:40.499Z,5.95
2018-03-16T02:38:40.521Z,6.07
2018-03-16T02:39:40.480Z,6.05
2018-03-16T02:40:40.554Z,6.06
2018-03-16T02:41:40.497Z,5.97
2018-03-16T02:42:40.505Z,5.93
2018-03-16T02:43:40.485Z,6
2018-03-16T02:44:40.507Z,6.03
2018-03-16T02:45:40.530Z,6.03
2018-03-16T02:46:40.497Z,6.08
2018-03-16T02:47:40.508Z,6.03
2018-03-16T02:48:40.512Z,5.99
2018-03-16T02:49:40.504Z,5.93
2018-03-16T02:50:40.563Z,6.06
2018-03-16T02:51:40.529Z,6
2018-03-16T02:52:40.529Z,6.01
2018-03-16T02:53:40.592Z,6.16
2018-03-16T02:54:40.523Z,6.02
2018-03-16T02:55:40.547Z,5.99
2018-03-16T02:56:40.520Z,6.11
2018-03-16T02:57:40.536Z,6.07
2018-03-16T02:58:40.615Z,6.07
2018-03-16T02:59:40.553Z,6.07
2018-03-16T03:00:40.573Z,6.09
2018-03-16T03:01:40.582Z,6.09
2018-03-16T03:02:40.577Z,6.15
2018-03-16T03:03:40.585Z,6.1
2018-03-16T03:04:40.584Z,6.15
2018-03-16T03:05:40.576Z,6.15
2018-03-16T03:06:40.638Z,6.16
2018-03-16T03:07:40.604Z,6.16
2018-03-16T03:08:40.617Z,6.13
2018-03-16T03:09:40.602Z,6.15
2018-03-16T03:10:40.608Z,6.13
2018-03-16T03:11:40.619Z,6.13
2018-03-16T03:12:40.592Z,6.09
2018-03-16T03:13:40.616Z,6.17
2018-03-16T03:14:40.584Z,6.17
2018-03-16T03:15:40.663Z,6.11
2018-03-16T03:16:40.609Z,6.11
2018-03-16T03:17:40.607Z,6.2
2018-03-16T03:18:40.683Z,6.16
2018-03-16T03:19:40.607Z,6.27
2018-03-16T03:20:40.642Z,6.18
2018-03-16T03:21:40.843Z,6.34
2018-03-16T03:22:40.623Z,6.29
2018-03-16T03:23:40.634Z,6.2
2018-03-16T03:24:40.633Z,6.17
2018-03-16T03:25:40.665Z,6.1
2018-03-16T03:26:40.673Z,6.1
2018-03-16T03:27:40.629Z,5.99
2018-03-16T03:28:40.630Z,6.12
2018-03-16T03:29:40.631Z,6.08
2018-03-16T03:30:40.645Z,6.04
2018-03-16T03:31:40.657Z,6.1
2018-03-16T03:32:40.662Z,6.22
2018-03-16T03:33:40.650Z,6.18
2018-03-16T03:34:40.655Z,6.28
2018-03-16T03:35:40.652Z,6.31
2018-03-16T03:36:40.671Z,6.22
2018-03-16T03:37:40.675Z,6.22
2018-03-16T03:38:40.672Z,6.33
2018-03-16T03:39:40.713Z,6.22
2018-03-16T03:40:40.677Z,6.23
2018-03-16T03:41:40.730Z,6.32
2018-03-16T03:42:40.675Z,6.2
2018-03-16T03:43:40.686Z,6.09
2018-03-16T03:44:40.687Z,6.21
2018-03-16T03:45:40.701Z,6.25
2018-03-16T03:46:40.701Z,6.34
2018-03-16T03:47:40.704Z,6.24
2018-03-16T03:48:40.719Z,6.2
2018-03-16T03:49:40.706Z,6.31
2018-03-16T03:50:40.722Z,6.15
2018-03-16T03:51:40.728Z,6.27
2018-03-16T03:52:40.728Z,6.33
2018-03-16T03:53:40.731Z,6.16
2018-03-16T03:54:40.725Z,6.25
2018-03-16T03:55:40.712Z,6.19
2018-03-16T03:56:40.723Z,6.26
2018-03-16T03:57:40.713Z,6.24
2018-03-16T03:58:40.946Z,6.29
2018-03-16T03:59:40.778Z,6.22
2018-03-16T04:00:40.744Z,6.26
2018-03-16T04:01:40.737Z,6.2
2018-03-16T04:02:40.898Z,6.13
2018-03-16T04:03:40.740Z,6.09
2018-03-16T04:04:40.748Z,6.11
2018-03-16T04:05:40.756Z,6.18
2018-03-16T04:06:40.754Z,6.17
2018-03-16T04:07:40.782Z,6.17
2018-03-16T04:08:40.791Z,6.1
2018-03-16T04:09:40.764Z,6.1
2018-03-16T04:10:40.754Z,6.03
2018-03-16T04:11:40.767Z,6.01
2018-03-16T04:12:40.779Z,6.05
2018-03-16T04:13:40.764Z,6.1
2018-03-16T04:14:40.752Z,6.16
2018-03-16T04:15:40.759Z,6.26
2018-03-16T04:16:40.765Z,6.11
2018-03-16T04:17:40.769Z,6.16
2018-03-16T04:18:40.797Z,6.17
2018-03-16T04:19:40.781Z,6.09
2018-03-16T04:20:40.760Z,6.25
2018-03-16T04:21:40.779Z,6.28
2018-03-16T04:22:40.773Z,6.21
2018-03-16T04:23:40.765Z,6.21
2018-03-16T04:24:40.831Z,6.19
2018-03-16T04:25:40.788Z,6.25
2018-03-16T04:26:40.780Z,6.15
2018-03-16T04:27:40.796Z,6.18
2018-03-16T04:28:40.799Z,6.23
2018-03-16T04:29:40.890Z,6.21
2018-03-16T04:30:40.802Z,6.17
2018-03-16T04:31:40.819Z,6.13
2018-03-16T04:32:40.814Z,6.21
2018-03-16T04:33:40.825Z,6.23
2018-03-16T04:34:40.854Z,6.14
2018-03-16T04:35:40.825Z,6.19
2018-03-16T04:36:40.832Z,6.14
2018-03-16T04:37:40.851Z,6.3
2018-03-16T04:38:40.845Z,6.25
2018-03-16T04:39:40.843Z,6.24
2018-03-16T04:40:40.851Z,6.18
2018-03-16T04:41:41.013Z,6.15
2018-03-16T04:42:40.859Z,6.22
2018-03-16T04:43:40.861Z,6.14
2018-03-16T04:44:40.862Z,6.11
2018-03-16T04:45:40.875Z,6.23
2018-03-16T04:46:40.908Z,6.14
2018-03-16T04:47:40.898Z,6.13
2018-03-16T04:48:40.901Z,6.1
2018-03-16T04:49:40.875Z,6.16
2018-03-16T04:50:40.885Z,6.16
2018-03-16T04:51:40.897Z,6.14
2018-03-16T04:52:40.885Z,6.23
2018-03-16T04:53:40.901Z,6.15
2018-03-16T04:54:40.889Z,6.33
2018-03-16T04:55:40.882Z,6.35
2018-03-16T04:56:40.937Z,6.17
2018-03-16T04:57:40.929Z,6.17
2018-03-16T04:58:40.916Z,6.17
2018-03-16T04:59:40.920Z,6.12
2018-03-16T05:00:40.910Z,6.07
2018-03-16T05:01:40.916Z,6.1
2018-03-16T05:02:40.958Z,6.1
2018-03-16T05:03:40.948Z,6.26
2018-03-16T05:04:40.910Z,6.21
2018-03-16T05:05:40.924Z,6.23
2018-03-16T05:06:40.916Z,6.18
2018-03-16T05:07:40.950Z,6.14
2018-03-16T05:08:40.984Z,6.16
2018-03-16T05:09:40.966Z,6.12
2018-03-16T05:10:40.947Z,6.21
2018-03-16T05:11:40.959Z,6.21
2018-03-16T05:12:40.972Z,6.18
2018-03-16T05:13:40.962Z,6.13
2018-03-16T05:14:41.040Z,6.07
2018-03-16T05:15:41.436Z,6.14
2018-03-16T05:16:40.965Z,6.16
2018-03-16T05:17:40.975Z,6.12
2018-03-16T05:18:41.055Z,6.13
2018-03-16T05:19:40.983Z,6.16
2018-03-16T05:20:41.006Z,6.07
2018-03-16T05:21:41.009Z,6.08
2018-03-16T05:22:41.004Z,6.17
2018-03-16T05:23:41.023Z,6.13
2018-03-16T05:24:41.221Z,6.13
2018-03-16T05:25:41.467Z,6.19
2018-03-16T05:26:41.042Z,6.14
2018-03-16T05:27:41.025Z,6.19
2018-03-16T05:28:41.038Z,6.14
2018-03-16T05:29:41.030Z,6.3
2018-03-16T05:30:41.125Z,6.33
2018-03-16T05:31:41.046Z,6.19
2018-03-16T05:32:41.034Z,6.26
2018-03-16T05:33:41.041Z,6.36
2018-03-16T05:34:41.038Z,6.27
2018-03-16T05:35:41.035Z,6.12
2018-03-16T05:36:41.309Z,6.19
2018-03-16T05:37:41.056Z,6.13
2018-03-16T05:38:41.058Z,6.19
2018-03-16T05:39:41.087Z,6.18
2018-03-16T05:40:41.300Z,6.15
2018-03-16T05:41:41.099Z,6.11
2018-03-16T05:42:41.091Z,6.32
2018-03-16T05:43:41.066Z,6.22
2018-03-16T05:44:41.072Z,6.23
2018-03-16T05:45:41.084Z,6.23
2018-03-16T05:46:41.087Z,6.13
2018-03-16T05:47:41.087Z,6.11
2018-03-16T05:48:41.086Z,6.09
2018-03-16T05:49:41.098Z,6.08
2018-03-16T05:50:41.103Z,6.03
2018-03-16T05:51:41.094Z,6.02
2018-03-16T05:52:41.125Z,6
2018-03-16T05:53:41.166Z,6.03
2018-03-16T05:54:41.119Z,6
2018-03-16T05:55:41.112Z,6.01
2018-03-16T05:56:41.168Z,5.99
2018-03-16T05:57:41.270Z,6.03
2018-03-16T05:58:41.173Z,6.06
2018-03-16T05:59:41.114Z,6.14
2018-03-16T06:00:41.305Z,6.03
2018-03-16T06:01:41.134Z,5.98
2018-03-16T06:02:41.157Z,5.96
2018-03-16T06:03:41.181Z,6.02
2018-03-16T06:04:41.150Z,6.05
2018-03-16T06:05:41.153Z,6.03
2018-03-16T06:06:41.143Z,5.94
2018-03-16T06:07:41.182Z,5.92
2018-03-16T06:08:41.169Z,5.85
2018-03-16T06:09:41.154Z,5.94
2018-03-16T06:10:41.153Z,5.94
2018-03-16T06:11:41.181Z,5.9
2018-03-16T06:12:41.184Z,5.87
2018-03-16T06:13:41.178Z,5.94
2018-03-16T06:14:41.162Z,5.94
2018-03-16T06:15:41.169Z,5.93
2018-03-16T06:16:41.198Z,5.93
2018-03-16T06:17:41.229Z,5.91
2018-03-16T06:18:41.618Z,5.95
2018-03-16T06:19:41.186Z,5.93
2018-03-16T06:20:41.174Z,5.96
2018-03-16T06:21:41.181Z,5.9
2018-03-16T06:22:41.200Z,6.07
2018-03-16T06:23:41.277Z,6.04
2018-03-16T06:24:41.272Z,6.05
2018-03-16T06:25:41.220Z,6.11
2018-03-16T06:26:41.203Z,6.12
2018-03-16T06:27:41.207Z,6.07
2018-03-16T06:28:41.227Z,6.08
2018-03-16T06:29:41.221Z,6.1
2018-03-16T06:30:41.242Z,6.09
2018-03-16T06:31:41.219Z,6.02
2018-03-16T06:32:41.225Z,6.07
2018-03-16T06:33:41.228Z,6.2
2018-03-16T06:34:41.260Z,6.17
2018-03-16T06:35:41.238Z,6.15
2018-03-16T06:36:41.251Z,6.13
2018-03-16T06:37:41.242Z,6.12
2018-03-16T06:38:41.255Z,6.11
2018-03-16T06:39:41.309Z,6.09
2018-03-16T06:40:41.267Z,6.09
2018-03-16T06:41:41.291Z,6.14
2018-03-16T06:42:41.299Z,6.12
2018-03-16T06:43:41.270Z,6.08
2018-03-16T06:44:42.318Z,6.1
2018-03-16T06:45:41.311Z,6.07
2018-03-16T06:46:41.316Z,6.04
2018-03-16T06:47:41.312Z,6.08
2018-03-16T06:48:41.277Z,6.11
2018-03-16T06:49:41.278Z,6.1
2018-03-16T06:50:41.285Z,6.18
2018-03-16T06:51:41.407Z,6.15
2018-03-16T06:52:41.281Z,6.18
2018-03-16T06:53:41.285Z,6.21
2018-03-16T06:54:41.314Z,6.12
2018-03-16T06:55:41.316Z,6.18
2018-03-16T06:56:41.355Z,6.23
2018-03-16T06:57:41.309Z,6.2
2018-03-16T06:58:41.345Z,6.21
2018-03-16T06:59:41.314Z,6.24
2018-03-16T07:00:41.313Z,6.26
2018-03-16T07:01:41.312Z,6.24
2018-03-16T07:02:41.340Z,6.13
2018-03-16T07:03:41.351Z,6.19
2018-03-16T07:04:41.342Z,6.26
2018-03-16T07:05:41.379Z,6.25
2018-03-16T07:06:41.330Z,6.29
2018-03-16T07:07:41.346Z,6.27
2018-03-16T07:08:41.359Z,6.34
2018-03-16T07:09:41.354Z,6.21
2018-03-16T07:10:41.401Z,6.38
2018-03-16T07:11:41.362Z,6.34
2018-03-16T07:12:41.496Z,6.32
2018-03-16T07:13:41.365Z,6.34
2018-03-16T07:14:41.385Z,6.34
2018-03-16T07:15:41.388Z,6.34
2018-03-16T07:16:41.357Z,6.36
2018-03-16T07:17:41.380Z,6.29
2018-03-16T07:18:41.372Z,6.28
2018-03-16T07:19:41.478Z,6.34
2018-03-16T07:20:41.407Z,6.29
2018-03-16T07:21:41.373Z,6.31
2018-03-16T07:22:41.407Z,6.31
2018-03-16T07:23:41.394Z,6.22
2018-03-16T07:24:41.411Z,6.3
2018-03-16T07:25:41.424Z,6.3
2018-03-16T07:26:41.411Z,6.32
2018-03-16T07:27:41.412Z,6.36
2018-03-16T07:28:41.485Z,6.37
2018-03-16T07:29:41.506Z,6.42
2018-03-16T07:30:41.494Z,6.39
2018-03-16T07:31:41.423Z,6.4
2018-03-16T07:32:41.439Z,6.38
2018-03-16T07:33:41.433Z,6.36
2018-03-16T07:34:41.424Z,6.39
2018-03-16T07:35:41.424Z,6.41
2018-03-16T07:36:41.458Z,6.48
2018-03-16T07:37:41.437Z,6.42
2018-03-16T07:38:41.457Z,6.48
2018-03-16T07:39:41.447Z,6.44
2018-03-16T07:40:41.438Z,6.44
2018-03-16T07:41:41.474Z,6.38
2018-03-16T07:42:41.453Z,6.36
2018-03-16T07:43:41.471Z,6.35
2018-03-16T07:44:41.463Z,6.42
2018-03-16T07:45:41.473Z,6.41
2018-03-16T07:46:41.520Z,6.41
2018-03-16T07:47:41.473Z,6.37
2018-03-16T07:48:41.486Z,6.41
2018-03-16T07:49:41.477Z,6.45
2018-03-16T07:50:41.541Z,6.38
2018-03-16T07:51:41.492Z,6.41
2018-03-16T07:52:41.981Z,6.37
2018-03-16T07:53:41.493Z,6.36
2018-03-16T07:54:41.479Z,6.42
2018-03-16T07:55:41.612Z,6.43
2018-03-16T07:56:41.523Z,6.44
2018-03-16T07:57:41.490Z,6.44
2018-03-16T07:58:41.489Z,6.38
2018-03-16T07:59:41.509Z,6.44
2018-03-16T08:00:41.514Z,6.5
2018-03-16T08:01:41.530Z,6.47
2018-03-16T08:02:41.511Z,6.47
2018-03-16T08:03:41.539Z,6.47
2018-03-16T08:04:41.525Z,6.51
2018-03-16T08:05:41.541Z,6.48
2018-03-16T08:06:41.572Z,6.45
2018-03-16T08:07:41.522Z,6.45
2018-03-16T08:08:41.694Z,6.53
2018-03-16T08:09:41.541Z,6.48
2018-03-16T08:10:41.556Z,6.56
2018-03-16T08:11:41.565Z,6.51
2018-03-16T08:12:41.576Z,6.57
2018-03-16T08:13:41.549Z,6.58
2018-03-16T08:14:41.552Z,6.63
2018-03-16T08:15:41.544Z,6.72
2018-03-16T08:16:41.591Z,6.68
2018-03-16T08:17:41.547Z,6.65
2018-03-16T08:18:41.575Z,6.63
2018-03-16T08:19:41.559Z,6.63
2018-03-16T08:20:41.590Z,6.59
2018-03-16T08:21:41.589Z,6.65
2018-03-16T08:22:41.580Z,6.67
2018-03-16T08:23:41.589Z,6.65
2018-03-16T08:24:41.585Z,6.66
2018-03-16T08:25:41.571Z,6.63
2018-03-16T08:26:41.594Z,6.68
2018-03-16T08:27:41.582Z,6.68
2018-03-16T08:28:41.612Z,6.71
2018-03-16T08:29:41.587Z,6.73
2018-03-16T08:30:41.589Z,6.7
2018-03-16T08:31:41.613Z,6.6
2018-03-16T08:32:41.606Z,6.67
2018-03-16T08:33:41.614Z,6.66
2018-03-16T08:34:41.627Z,6.67
2018-03-16T08:35:41.599Z,6.68
2018-03-16T08:36:41.620Z,6.65
2018-03-16T08:37:41.618Z,6.66
2018-03-16T08:38:41.628Z,6.64
2018-03-16T08:39:41.608Z,6.77
2018-03-16T08:40:41.628Z,6.73
2018-03-16T08:41:41.614Z,6.69
2018-03-16T08:42:41.630Z,6.66
2018-03-16T08:43:41.890Z,6.63
2018-03-16T08:44:41.615Z,6.61
2018-03-16T08:45:41.627Z,6.63
2018-03-16T08:46:41.638Z,6.73
2018-03-16T08:47:41.629Z,6.81
2018-03-16T08:48:41.667Z,6.77
2018-03-16T08:49:41.645Z,6.72
2018-03-16T08:50:41.653Z,6.77
2018-03-16T08:51:41.688Z,6.76
2018-03-16T08:52:41.665Z,6.77
2018-03-16T08:53:41.694Z,6.8
2018-03-16T08:54:41.662Z,6.83
2018-03-16T08:55:41.676Z,6.85
2018-03-16T08:56:41.678Z,6.83
2018-03-16T08:57:41.685Z,6.8
2018-03-16T08:58:41.717Z,6.83
2018-03-16T08:59:41.803Z,6.83
2018-03-16T09:00:41.697Z,6.9
2018-03-16T09:01:41.691Z,6.88
2018-03-16T09:02:41.698Z,6.9
2018-03-16T09:03:41.719Z,6.9
2018-03-16T09:04:41.703Z,6.93
2018-03-16T09:05:41.699Z,7
2018-03-16T09:06:41.704Z,6.99
2018-03-16T09:07:41.717Z,6.95
2018-03-16T09:08:41.745Z,6.95
2018-03-16T09:09:41.728Z,6.95
2018-03-16T09:10:41.721Z,6.98
2018-03-16T09:11:41.728Z,7.02
2018-03-16T09:12:41.872Z,7.01
2018-03-16T09:13:41.734Z,7
2018-03-16T09:14:41.773Z,7
2018-03-16T09:15:41.742Z,7.04
2018-03-16T09:16:41.730Z,7.05
2018-03-16T09:17:41.746Z,7.06
2018-03-16T09:18:41.781Z,7.12
2018-03-16T09:19:41.771Z,7.07
2018-03-16T09:20:41.744Z,7.11
2018-03-16T09:21:41.742Z,7.06
2018-03-16T09:22:41.756Z,7.08
2018-03-16T09:23:41.766Z,7.06
2018-03-16T09:24:41.782Z,7.12
2018-03-16T09:25:41.776Z,7.1
2018-03-16T09:26:41.781Z,7.09
2018-03-16T09:27:41.759Z,7.08
2018-03-16T09:28:41.778Z,7.09
2018-03-16T09:29:42.023Z,7.05
2018-03-16T09:30:41.789Z,7.16
2018-03-16T09:31:41.810Z,7.18
2018-03-16T09:32:42.011Z,7.09
2018-03-16T09:33:41.787Z,7.11
2018-03-16T09:34:41.821Z,7.17
2018-03-16T09:35:41.858Z,7.16
2018-03-16T09:36:41.788Z,7.16
2018-03-16T09:37:41.805Z,7.17
2018-03-16T09:38:41.804Z,7.2
2018-03-16T09:39:41.833Z,7.11
2018-03-16T09:40:41.814Z,7.2
2018-03-16T09:41:41.826Z,7.18
2018-03-16T09:42:41.808Z,7.26
2018-03-16T09:43:41.869Z,7.2
2018-03-16T09:44:41.839Z,7.22
2018-03-16T09:45:41.871Z,7.2
2018-03-16T09:46:41.826Z,7.22
2018-03-16T09:47:41.844Z,7.26
2018-03-16T09:48:41.856Z,7.21
2018-03-16T09:49:41.884Z,7.25
2018-03-16T09:50:42.059Z,7.22
2018-03-16T09:51:41.856Z,7.31
2018-03-16T09:52:41.867Z,7.27
2018-03-16T09:53:41.865Z,7.28
2018-03-16T09:54:41.883Z,7.25
2018-03-16T09:55:41.857Z,7.27
2018-03-16T09:56:42.145Z,7.25
2018-03-16T09:57:41.888Z,7.29
2018-03-16T09:58:41.881Z,7.35
2018-03-16T09:59:41.886Z,7.33
2018-03-16T10:00:41.894Z,7.3
2018-03-16T10:01:41.915Z,7.3
2018-03-16T10:02:41.900Z,7.31
2018-03-16T10:03:41.923Z,7.31
2018-03-16T10:04:41.900Z,7.36
2018-03-16T10:05:41.895Z,7.37
2018-03-16T10:06:41.916Z,7.32
2018-03-16T10:07:41.939Z,7.33
2018-03-16T10:08:41.897Z,7.25
2018-03-16T10:09:41.934Z,7.36
2018-03-16T10:10:41.914Z,7.39
2018-03-16T10:11:41.921Z,7.34
2018-03-16T10:12:41.915Z,7.35
2018-03-16T10:13:41.922Z,7.34
2018-03-16T10:14:41.923Z,7.34
2018-03-16T10:15:41.928Z,7.37
2018-03-16T10:16:41.954Z,7.35
2018-03-16T10:17:42.101Z,7.35
2018-03-16T10:18:41.939Z,7.37
2018-03-16T10:19:42.249Z,7.4
2018-03-16T10:20:41.967Z,7.41
2018-03-16T10:21:41.948Z,7.34
2018-03-16T10:22:41.933Z,7.37
2018-03-16T10:23:41.959Z,7.56
2018-03-16T10:24:41.956Z,7.41
2018-03-16T10:25:42.080Z,7.58
2018-03-16T10:26:41.949Z,7.68
2018-03-16T10:27:41.993Z,7.65
2018-03-16T10:28:41.942Z,7.72
2018-03-16T10:29:41.950Z,7.64
2018-03-16T10:30:41.944Z,7.63
2018-03-16T10:31:41.974Z,7.79
2018-03-16T10:32:41.960Z,7.82
2018-03-16T10:33:41.974Z,7.88
2018-03-16T10:34:41.980Z,7.85
2018-03-16T10:35:41.985Z,7.85
2018-03-16T10:36:41.979Z,7.93
2018-03-16T10:37:41.980Z,7.86
2018-03-16T10:38:41.981Z,7.98
2018-03-16T10:39:42.047Z,7.94
2018-03-16T10:40:42.001Z,8.09
2018-03-16T10:41:41.996Z,8.15
2018-03-16T10:42:42.084Z,8.06
2018-03-16T10:43:41.987Z,8.04
2018-03-16T10:44:41.992Z,8.21
2018-03-16T10:45:42.297Z,8.17
2018-03-16T10:46:42.011Z,8.11
2018-03-16T10:47:42.002Z,8.02
2018-03-16T10:48:41.996Z,8.04
2018-03-16T10:49:42.004Z,8.08
2018-03-16T10:50:42.026Z,8.28
2018-03-16T10:51:42.017Z,8.18
2018-03-16T10:52:42.024Z,8.15
2018-03-16T10:53:42.011Z,8.08
2018-03-16T10:54:42.017Z,7.99
2018-03-16T10:55:42.100Z,7.96
2018-03-16T10:56:42.043Z,8.11
2018-03-16T10:57:42.064Z,8.39
2018-03-16T10:58:42.027Z,8.37
2018-03-16T10:59:42.062Z,8.52
2018-03-16T11:00:42.105Z,8.65
2018-03-16T11:01:42.053Z,8.4
2018-03-16T11:02:42.102Z,8.49
2018-03-16T11:03:42.065Z,8.43
2018-03-16T11:04:42.071Z,8.34
2018-03-16T11:05:42.064Z,8.28
2018-03-16T11:06:42.237Z,8.43
2018-03-16T11:07:42.079Z,8.16
2018-03-16T11:08:42.068Z,8
2018-03-16T11:09:42.077Z,8.11
2018-03-16T11:10:42.083Z,8.18
2018-03-16T11:11:42.378Z,8.12
2018-03-16T11:12:42.070Z,8.13
2018-03-16T11:13:42.087Z,8.1
2018-03-16T11:14:42.088Z,8.1
2018-03-16T11:15:42.078Z,8.12
2018-03-16T11:16:42.114Z,8.26
2018-03-16T11:17:42.096Z,8.05
2018-03-16T11:18:42.084Z,8.03
2018-03-16T11:19:42.084Z,8.08
2018-03-16T11:20:42.093Z,8.15
2018-03-16T11:21:42.084Z,8.11
2018-03-16T11:22:42.080Z,8.07
2018-03-16T11:23:42.097Z,8.13
2018-03-16T11:24:42.136Z,8.12
2018-03-16T11:25:42.099Z,8.17
2018-03-16T11:26:42.118Z,8.09
2018-03-16T11:27:42.129Z,8.14
2018-03-16T11:28:42.102Z,8.15
2018-03-16T11:29:42.240Z,8.31
2018-03-16T11:30:42.139Z,8.52
2018-03-16T11:31:42.126Z,8.41
2018-03-16T11:32:42.114Z,8.33
2018-03-16T11:33:42.104Z,8.29
2018-03-16T11:34:42.112Z,8.45
2018-03-16T11:35:42.104Z,8.49
2018-03-16T11:36:42.247Z,8.39
2018-03-16T11:37:42.124Z,8.43
2018-03-16T11:38:42.135Z,8.58
2018-03-16T11:39:42.128Z,8.39
2018-03-16T11:40:42.127Z,8.35
2018-03-16T11:41:42.154Z,8.32
2018-03-16T11:42:42.162Z,8.34
2018-03-16T11:43:42.148Z,8.42
2018-03-16T11:44:42.161Z,8.16
2018-03-16T11:45:42.169Z,8.26
2018-03-16T11:46:42.190Z,8.26
2018-03-16T11:47:42.173Z,7.98
2018-03-16T11:48:42.176Z,7.98
2018-03-16T11:49:42.173Z,7.97
2018-03-16T11:50:42.196Z,8.12
2018-03-16T11:51:42.199Z,8.27
2018-03-16T11:52:42.244Z,8.27
2018-03-16T11:53:42.319Z,7.97
2018-03-16T11:54:42.189Z,8.06
2018-03-16T11:55:42.250Z,8.06
2018-03-16T11:56:42.225Z,8.08
2018-03-16T11:57:42.186Z,8.1
2018-03-16T11:58:42.202Z,8.07
2018-03-16T11:59:42.446Z,8.11
2018-03-16T12:00:42.208Z,8.08
2018-03-16T12:01:42.236Z,8
2018-03-16T12:02:42.217Z,7.91
2018-03-16T12:03:42.230Z,7.96
2018-03-16T12:04:42.210Z,7.88
2018-03-16T12:05:43.152Z,7.84
2018-03-16T12:06:43.979Z,7.64
2018-03-16T12:07:42.224Z,7.7
2018-03-16T12:08:42.223Z,7.74
2018-03-16T12:09:42.232Z,7.72
2018-03-16T12:10:42.408Z,7.58
2018-03-16T12:11:42.234Z,7.59
2018-03-16T12:12:42.249Z,7.42
2018-03-16T12:13:42.252Z,7.57
2018-03-16T12:14:42.241Z,7.61
2018-03-16T12:15:42.249Z,7.61
2018-03-16T12:16:42.269Z,7.57
2018-03-16T12:17:42.252Z,7.41
2018-03-16T12:18:42.274Z,7.56
2018-03-16T12:19:42.268Z,7.67
2018-03-16T12:20:42.252Z,7.74
2018-03-16T12:21:42.311Z,7.64
2018-03-16T12:22:42.283Z,7.61
2018-03-16T12:23:42.304Z,7.67
2018-03-16T12:24:42.267Z,7.73
2018-03-16T12:25:42.273Z,7.61
2018-03-16T12:26:42.417Z,7.71
2018-03-16T12:27:42.322Z,7.62
2018-03-16T12:28:50.735Z,7.59
2018-03-16T12:29:42.306Z,7.62
2018-03-16T12:30:42.388Z,7.57
2018-03-16T12:31:42.342Z,7.62
2018-03-16T12:32:42.348Z,7.64
2018-03-16T12:33:42.339Z,7.39
2018-03-16T12:34:42.384Z,7.4
2018-03-16T12:35:42.342Z,7.51
2018-03-16T12:36:42.299Z,7.57
2018-03-16T12:37:42.404Z,7.59
2018-03-16T12:38:42.391Z,7.55
2018-03-16T12:39:42.298Z,7.57
2018-03-16T12:40:42.307Z,7.78
2018-03-16T12:41:42.440Z,7.48
2018-03-16T12:42:42.427Z,7.65
2018-03-16T12:43:42.310Z,7.57
2018-03-16T12:44:42.343Z,7.65
2018-03-16T12:45:42.318Z,7.52
2018-03-16T12:46:42.574Z,7.67
2018-03-16T12:47:42.340Z,7.53
2018-03-16T12:48:42.326Z,7.49
2018-03-16T12:49:42.359Z,7.38
2018-03-16T12:50:42.330Z,7.43
2018-03-16T12:51:42.722Z,7.5
2018-03-16T12:52:42.387Z,7.43
2018-03-16T12:53:42.388Z,7.37
2018-03-16T12:54:42.349Z,7.43
2018-03-16T12:55:42.339Z,7.47
2018-03-16T12:56:42.425Z,7.64
2018-03-16T12:57:42.446Z,7.36
2018-03-16T12:58:42.431Z,7.7
2018-03-16T12:59:42.443Z,7.53
2018-03-16T13:00:42.461Z,7.5
2018-03-16T13:01:42.381Z,7.58
2018-03-16T13:02:43.324Z,7.7
2018-03-16T13:03:42.503Z,7.61
2018-03-16T13:04:42.468Z,7.52
2018-03-16T13:05:42.395Z,7.4
2018-03-16T13:06:42.458Z,7.47
2018-03-16T13:07:42.460Z,7.42
2018-03-16T13:08:42.618Z,7.24
2018-03-16T13:09:42.409Z,7.18
2018-03-16T13:10:42.408Z,7.41
2018-03-16T13:11:42.402Z,7.63
2018-03-16T13:12:42.413Z,7.72
2018-03-16T13:13:42.431Z,7.46
2018-03-16T13:14:42.445Z,7.25
2018-03-16T13:15:42.415Z,7.16
2018-03-16T13:16:42.436Z,7.13
2018-03-16T13:17:42.508Z,7.21
2018-03-16T13:18:42.455Z,7
2018-03-16T13:19:42.434Z,6.99
2018-03-16T13:20:42.487Z,7.01
2018-03-16T13:21:42.464Z,7.14